createdAt,value
2018-12-07T00:00:19.392Z,981.99
2018-12-07T00:01:18.794Z,981.96
2018-12-07T00:02:18.707Z,981.92
2018-12-07T00:03:18.630Z,981.95
2018-12-07T00:04:18.544Z,981.95
2018-12-07T00:05:18.454Z,981.93
2018-12-07T00:06:18.374Z,981.93
2018-12-07T00:07:18.283Z,981.91
2018-12-07T00:08:18.203Z,981.89
2018-12-07T00:09:18.890Z,981.84
2018-12-07T00:10:18.036Z,981.84
2018-12-07T00:11:18.884Z,981.78
2018-12-07T00:12:17.875Z,981.81
2018-12-07T00:13:17.789Z,981.77
2018-12-07T00:14:17.701Z,981.79
2018-12-07T00:15:17.620Z,981.75
2018-12-07T00:16:17.535Z,981.77
2018-12-07T00:17:17.441Z,981.76
2018-12-07T00:18:17.360Z,981.75
2018-12-07T00:19:17.886Z,981.74
2018-12-07T00:20:17.193Z,981.72
2018-12-07T00:21:17.107Z,981.75
2018-12-07T00:22:17.032Z,981.71
2018-12-07T00:23:16.941Z,981.71
2018-12-07T00:24:17.388Z,981.73
2018-12-07T00:25:17.387Z,981.73
2018-12-07T00:26:16.631Z,981.71
2018-12-07T00:27:16.607Z,981.69
2018-12-07T00:28:16.527Z,981.69
2018-12-07T00:29:16.447Z,981.66
2018-12-07T00:30:16.886Z,981.69
2018-12-07T00:31:18.890Z,981.63
2018-12-07T00:32:16.190Z,981.61
2018-12-07T00:33:16.105Z,981.62
2018-12-07T00:34:16.013Z,981.61
2018-12-07T00:35:15.934Z,981.60
2018-12-07T00:36:15.851Z,981.57
2018-12-07T00:37:15.778Z,981.59
2018-12-07T00:38:15.682Z,981.60
2018-12-07T00:39:15.598Z,981.58
2018-12-07T00:40:15.511Z,981.56
2018-12-07T00:41:15.435Z,981.54
2018-12-07T00:42:15.345Z,981.56
2018-12-07T00:43:15.264Z,981.50
2018-12-07T00:44:15.173Z,981.54
2018-12-07T00:45:15.093Z,981.49
2018-12-07T00:46:15.003Z,981.46
2018-12-07T00:47:15.890Z,981.53
2018-12-07T00:48:14.843Z,981.47
2018-12-07T00:49:14.769Z,981.47
2018-12-07T00:50:14.673Z,981.51
2018-12-07T00:51:14.605Z,981.45
2018-12-07T00:52:14.510Z,981.47
2018-12-07T00:53:14.420Z,981.49
2018-12-07T00:54:14.341Z,981.50
2018-12-07T00:55:14.255Z,981.49
2018-12-07T00:56:14.165Z,981.45
2018-12-07T00:57:14.078Z,981.45
2018-12-07T00:58:14.898Z,981.47
2018-12-07T00:59:13.943Z,981.49
2018-12-07T01:00:14.398Z,981.46
2018-12-07T01:01:13.750Z,981.50
2018-12-07T01:02:14.401Z,981.43
2018-12-07T01:03:13.584Z,981.44
2018-12-07T01:04:14.402Z,981.40
2018-12-07T01:05:13.417Z,981.31
2018-12-07T01:06:13.323Z,981.35
2018-12-07T01:07:13.250Z,981.36
2018-12-07T01:08:13.166Z,981.36
2018-12-07T01:09:13.070Z,981.36
2018-12-07T01:10:14.904Z,981.38
2018-12-07T01:11:12.967Z,981.38
2018-12-07T01:12:12.827Z,981.41
2018-12-07T01:13:12.736Z,981.36
2018-12-07T01:14:12.655Z,981.37
2018-12-07T01:15:12.503Z,981.39
2018-12-07T01:16:12.425Z,981.38
2018-12-07T01:17:12.332Z,981.41
2018-12-07T01:18:12.249Z,981.41
2018-12-07T01:19:12.167Z,981.39
2018-12-07T01:20:12.081Z,981.36
2018-12-07T01:21:12.000Z,981.35
2018-12-07T01:22:11.915Z,981.35
2018-12-07T01:23:11.834Z,981.33
2018-12-07T01:24:11.749Z,981.32
2018-12-07T01:25:11.661Z,981.32
2018-12-07T01:26:11.577Z,981.30
2018-12-07T01:27:11.494Z,981.28
2018-12-07T01:28:11.412Z,981.28
2018-12-07T01:29:11.327Z,981.27
2018-12-07T01:30:11.244Z,981.26
2018-12-07T01:31:11.158Z,981.21
2018-12-07T01:32:11.076Z,981.26
2018-12-07T01:33:10.991Z,981.18
2018-12-07T01:34:10.906Z,981.18
2018-12-07T01:35:10.822Z,981.15
2018-12-07T01:36:10.741Z,981.18
2018-12-07T01:37:10.654Z,981.18
2018-12-07T01:38:10.571Z,981.20
2018-12-07T01:39:10.486Z,981.16
2018-12-07T01:40:10.403Z,981.14
2018-12-07T01:41:10.318Z,981.14
2018-12-07T01:42:10.234Z,981.19
2018-12-07T01:43:10.151Z,981.13
2018-12-07T01:44:10.069Z,981.16
2018-12-07T01:45:09.984Z,981.12
2018-12-07T01:46:09.900Z,981.14
2018-12-07T01:47:09.816Z,981.10
2018-12-07T01:48:09.736Z,981.11
2018-12-07T01:49:09.649Z,981.11
2018-12-07T01:50:09.567Z,981.10
2018-12-07T01:51:09.482Z,981.09
2018-12-07T01:52:09.395Z,981.12
2018-12-07T01:53:09.312Z,981.13
2018-12-07T01:54:09.228Z,981.10
2018-12-07T01:55:09.148Z,981.09
2018-12-07T01:56:09.061Z,981.06
2018-12-07T01:57:08.975Z,981.04
2018-12-07T01:58:08.894Z,981.06
2018-12-07T01:59:08.809Z,981.03
2018-12-07T02:00:08.724Z,981.07
2018-12-07T02:01:08.642Z,981.08
2018-12-07T02:02:08.557Z,981.06
2018-12-07T02:03:08.474Z,981.06
2018-12-07T02:04:08.388Z,981.09
2018-12-07T02:05:08.305Z,981.08
2018-12-07T02:06:08.221Z,981.07
2018-12-07T02:07:08.138Z,981.04
2018-12-07T02:08:08.055Z,981.04
2018-12-07T02:09:07.972Z,981.02
2018-12-07T02:10:07.888Z,980.97
2018-12-07T02:11:07.802Z,980.95
2018-12-07T02:12:07.717Z,980.96
2018-12-07T02:13:07.636Z,980.95
2018-12-07T02:14:07.551Z,980.88
2018-12-07T02:15:07.468Z,980.89
2018-12-07T02:16:07.382Z,980.87
2018-12-07T02:17:07.296Z,980.82
2018-12-07T02:18:07.214Z,980.80
2018-12-07T02:19:07.129Z,980.77
2018-12-07T02:20:07.046Z,980.72
2018-12-07T02:21:06.961Z,980.70
2018-12-07T02:22:06.884Z,980.66
2018-12-07T02:23:06.796Z,980.63
2018-12-07T02:24:06.712Z,980.62
2018-12-07T02:25:06.627Z,980.60
2018-12-07T02:26:06.544Z,980.57
2018-12-07T02:27:06.460Z,980.55
2018-12-07T02:28:06.376Z,980.55
2018-12-07T02:29:06.295Z,980.54
2018-12-07T02:30:06.210Z,980.54
2018-12-07T02:31:06.137Z,980.55
2018-12-07T02:32:06.044Z,980.54
2018-12-07T02:33:05.957Z,980.53
2018-12-07T02:34:05.874Z,980.55
2018-12-07T02:35:05.790Z,980.52
2018-12-07T02:36:05.709Z,980.51
2018-12-07T02:37:05.624Z,980.54
2018-12-07T02:38:05.549Z,980.53
2018-12-07T02:39:05.457Z,980.52
2018-12-07T02:40:05.377Z,980.48
2018-12-07T02:41:05.289Z,980.51
2018-12-07T02:42:05.205Z,980.49
2018-12-07T02:43:05.121Z,980.45
2018-12-07T02:44:05.038Z,980.46
2018-12-07T02:45:04.955Z,980.47
2018-12-07T02:46:04.870Z,980.47
2018-12-07T02:47:04.788Z,980.49
2018-12-07T02:48:04.706Z,980.43
2018-12-07T02:49:04.617Z,980.43
2018-12-07T02:50:04.540Z,980.43
2018-12-07T02:51:04.452Z,980.40
2018-12-07T02:52:04.367Z,980.38
2018-12-07T02:53:04.371Z,980.36
2018-12-07T02:54:04.200Z,980.38
2018-12-07T02:55:04.115Z,980.41
2018-12-07T02:56:04.038Z,980.39
2018-12-07T02:57:03.953Z,980.37
2018-12-07T02:58:03.865Z,980.41
2018-12-07T02:59:03.781Z,980.39
2018-12-07T03:00:03.697Z,980.36
2018-12-07T03:01:03.613Z,980.37
2018-12-07T03:02:03.530Z,980.34
2018-12-07T03:03:03.445Z,980.36
2018-12-07T03:04:03.365Z,980.34
2018-12-07T03:05:03.281Z,980.38
2018-12-07T03:06:03.197Z,980.35
2018-12-07T03:07:03.111Z,980.33
2018-12-07T03:08:03.029Z,980.36
2018-12-07T03:09:02.945Z,980.38
2018-12-07T03:10:02.860Z,980.35
2018-12-07T03:11:02.777Z,980.38
2018-12-07T03:12:02.694Z,980.34
2018-12-07T03:13:02.609Z,980.35
2018-12-07T03:14:02.526Z,980.34
2018-12-07T03:15:02.452Z,980.31
2018-12-07T03:16:02.360Z,980.30
2018-12-07T03:17:02.276Z,980.28
2018-12-07T03:18:02.191Z,980.34
2018-12-07T03:19:02.108Z,980.32
2018-12-07T03:20:02.028Z,980.30
2018-12-07T03:21:01.940Z,980.31
2018-12-07T03:22:01.861Z,980.35
2018-12-07T03:23:01.779Z,980.30
2018-12-07T03:24:01.692Z,980.30
2018-12-07T03:25:01.608Z,980.36
2018-12-07T03:26:01.521Z,980.31
2018-12-07T03:27:01.522Z,980.32
2018-12-07T03:28:01.355Z,980.31
2018-12-07T03:29:01.271Z,980.29
2018-12-07T03:30:01.187Z,980.30
2018-12-07T03:31:01.105Z,980.25
2018-12-07T03:32:01.041Z,980.23
2018-12-07T03:33:00.946Z,980.24
2018-12-07T03:34:02.471Z,980.21
2018-12-07T03:35:00.772Z,980.22
2018-12-07T03:36:00.695Z,980.23
2018-12-07T03:37:00.604Z,980.21
2018-12-07T03:38:00.519Z,980.21
2018-12-07T03:39:00.437Z,980.18
2018-12-07T03:40:00.352Z,980.16
2018-12-07T03:41:00.270Z,980.14
2018-12-07T03:42:00.185Z,980.08
2018-12-07T03:43:00.102Z,980.09
2018-12-07T03:44:00.017Z,980.08
2018-12-07T03:44:59.933Z,980.07
2018-12-07T03:45:59.849Z,980.03
2018-12-07T03:46:59.765Z,980.04
2018-12-07T03:47:59.686Z,980.02
2018-12-07T03:48:59.603Z,980.03
2018-12-07T03:49:59.517Z,980.01
2018-12-07T03:50:59.444Z,980.02
2018-12-07T03:51:59.350Z,979.97
2018-12-07T03:52:59.281Z,979.99
2018-12-07T03:53:59.179Z,979.98
2018-12-07T03:54:59.098Z,980.00
2018-12-07T03:55:59.017Z,979.97
2018-12-07T03:56:58.931Z,979.94
2018-12-07T03:57:58.846Z,979.89
2018-12-07T03:58:58.765Z,979.84
2018-12-07T03:59:58.681Z,979.90
2018-12-07T04:00:58.595Z,979.84
2018-12-07T04:01:58.519Z,979.81
2018-12-07T04:02:58.428Z,979.75
2018-12-07T04:03:58.347Z,979.73
2018-12-07T04:04:58.269Z,979.70
2018-12-07T04:05:58.178Z,979.71
2018-12-07T04:06:58.095Z,979.70
2018-12-07T04:07:58.017Z,979.70
2018-12-07T04:08:57.928Z,979.67
2018-12-07T04:09:57.847Z,979.63
2018-12-07T04:10:57.760Z,979.64
2018-12-07T04:11:57.678Z,979.66
2018-12-07T04:12:57.593Z,979.65
2018-12-07T04:13:57.512Z,979.61
2018-12-07T04:14:57.427Z,979.62
2018-12-07T04:15:57.343Z,979.59
2018-12-07T04:16:57.260Z,979.58
2018-12-07T04:17:57.175Z,979.60
2018-12-07T04:18:57.099Z,979.60
2018-12-07T04:19:57.014Z,979.62
2018-12-07T04:20:56.925Z,979.55
2018-12-07T04:21:56.844Z,979.55
2018-12-07T04:22:56.761Z,979.58
2018-12-07T04:23:56.675Z,979.52
2018-12-07T04:24:56.596Z,979.56
2018-12-07T04:25:56.508Z,979.51
2018-12-07T04:26:56.431Z,979.57
2018-12-07T04:27:56.341Z,979.58
2018-12-07T04:28:56.256Z,979.56
2018-12-07T04:29:56.173Z,979.55
2018-12-07T04:30:56.093Z,979.53
2018-12-07T04:31:56.008Z,979.50
2018-12-07T04:32:55.923Z,979.51
2018-12-07T04:33:55.840Z,979.51
2018-12-07T04:34:55.764Z,979.51
2018-12-07T04:35:55.673Z,979.51
2018-12-07T04:36:55.588Z,979.51
2018-12-07T04:37:55.507Z,979.48
2018-12-07T04:38:55.422Z,979.50
2018-12-07T04:39:55.340Z,979.46
2018-12-07T04:40:55.254Z,979.46
2018-12-07T04:41:55.174Z,979.48
2018-12-07T04:42:55.094Z,979.47
2018-12-07T04:43:55.008Z,979.46
2018-12-07T04:44:54.922Z,979.45
2018-12-07T04:45:54.840Z,979.45
2018-12-07T04:46:54.758Z,979.48
2018-12-07T04:47:54.670Z,979.47
2018-12-07T04:48:54.585Z,979.46
2018-12-07T04:49:54.504Z,979.44
2018-12-07T04:50:54.422Z,979.46
2018-12-07T04:51:54.336Z,979.46
2018-12-07T04:52:54.253Z,979.42
2018-12-07T04:53:54.169Z,979.44
2018-12-07T04:54:54.086Z,979.42
2018-12-07T04:55:54.000Z,979.40
2018-12-07T04:56:53.921Z,979.41
2018-12-07T04:57:53.837Z,979.40
2018-12-07T04:58:53.753Z,979.41
2018-12-07T04:59:53.669Z,979.37
2018-12-07T05:00:53.584Z,979.36
2018-12-07T05:01:53.509Z,979.36
2018-12-07T05:02:53.416Z,979.34
2018-12-07T05:03:53.334Z,979.33
2018-12-07T05:04:53.255Z,979.32
2018-12-07T05:05:53.167Z,979.34
2018-12-07T05:06:53.083Z,979.37
2018-12-07T05:07:53.003Z,979.38
2018-12-07T05:08:52.925Z,979.36
2018-12-07T05:09:52.835Z,979.36
2018-12-07T05:10:52.753Z,979.34
2018-12-07T05:11:52.670Z,979.34
2018-12-07T05:12:52.583Z,979.33
2018-12-07T05:13:52.501Z,979.31
2018-12-07T05:14:52.415Z,979.33
2018-12-07T05:15:52.332Z,979.34
2018-12-07T05:16:52.250Z,979.32
2018-12-07T05:17:52.175Z,979.32
2018-12-07T05:18:52.082Z,979.37
2018-12-07T05:19:52.000Z,979.39
2018-12-07T05:20:51.914Z,979.41
2018-12-07T05:21:51.835Z,979.40
2018-12-07T05:22:51.749Z,979.41
2018-12-07T05:23:51.666Z,979.43
2018-12-07T05:24:51.582Z,979.43
2018-12-07T05:25:51.498Z,979.43
2018-12-07T05:26:51.416Z,979.40
2018-12-07T05:27:51.331Z,979.44
2018-12-07T05:28:51.250Z,979.45
2018-12-07T05:29:51.166Z,979.46
2018-12-07T05:30:51.084Z,979.46
2018-12-07T05:31:50.997Z,979.41
2018-12-07T05:32:50.914Z,979.42
2018-12-07T05:33:50.829Z,979.43
2018-12-07T05:34:50.746Z,979.42
2018-12-07T05:35:50.663Z,979.39
2018-12-07T05:36:50.578Z,979.40
2018-12-07T05:37:50.496Z,979.38
2018-12-07T05:38:50.411Z,979.35
2018-12-07T05:39:50.331Z,979.32
2018-12-07T05:40:50.248Z,979.30
2018-12-07T05:41:50.163Z,979.28
2018-12-07T05:42:50.096Z,979.24
2018-12-07T05:43:49.996Z,979.22
2018-12-07T05:44:49.913Z,979.21
2018-12-07T05:45:49.828Z,979.25
2018-12-07T05:48:32.812Z,979.28
2018-12-07T05:49:32.679Z,979.24
2018-12-07T05:51:37.019Z,979.28
2018-12-07T05:52:36.880Z,979.28
2018-12-07T05:54:41.165Z,979.23
2018-12-07T05:55:41.081Z,979.27
2018-12-07T05:57:45.408Z,979.21
2018-12-07T05:58:45.274Z,979.26
2018-12-07T06:00:49.651Z,979.21
2018-12-07T06:01:49.481Z,979.17
2018-12-07T06:03:53.772Z,979.13
2018-12-07T06:04:53.685Z,979.13
2018-12-07T06:06:46.949Z,979.14
2018-12-07T06:07:46.813Z,979.16
2018-12-07T06:09:51.097Z,979.12
2018-12-07T06:10:51.011Z,979.13
2018-12-07T06:12:55.349Z,979.08
2018-12-07T06:13:55.217Z,979.05
2018-12-07T06:15:59.548Z,979.05
2018-12-07T06:16:59.412Z,979.06
2018-12-07T06:19:03.697Z,979.02
2018-12-07T06:20:03.608Z,978.98
2018-12-07T06:22:07.940Z,978.98
2018-12-07T06:23:07.807Z,978.99
2018-12-07T06:25:12.142Z,978.96
2018-12-07T06:26:12.009Z,978.93
2018-12-07T06:28:16.303Z,978.94
2018-12-07T06:29:16.217Z,978.97
2018-12-07T06:31:20.579Z,978.96
2018-12-07T06:32:20.445Z,978.96
2018-12-07T06:34:24.822Z,978.91
2018-12-07T06:35:24.670Z,978.95
2018-12-07T06:37:17.951Z,978.96
2018-12-07T06:38:17.817Z,978.96
2018-12-07T06:40:22.146Z,978.95
2018-12-07T06:41:22.014Z,978.97
2018-12-07T06:42:21.929Z,978.97
2018-12-07T06:43:21.848Z,978.95
2018-12-07T06:44:21.767Z,978.93
2018-12-07T06:45:21.686Z,978.97
2018-12-07T06:46:21.599Z,978.91
2018-12-07T06:47:21.515Z,978.94
2018-12-07T06:48:21.433Z,978.92
2018-12-07T06:49:21.349Z,978.89
2018-12-07T06:50:21.264Z,978.89
2018-12-07T06:51:21.186Z,978.88
2018-12-07T06:52:21.100Z,978.89
2018-12-07T06:54:52.567Z,978.88
2018-12-07T06:55:52.437Z,978.83
2018-12-07T06:57:57.305Z,978.78
2018-12-07T06:58:57.169Z,978.79
2018-12-07T07:01:01.019Z,978.73
2018-12-07T07:02:00.886Z,978.76
2018-12-07T07:04:04.790Z,978.73
2018-12-07T07:05:04.617Z,978.73
2018-12-07T07:06:04.630Z,978.71
2018-12-07T07:07:05.337Z,978.70
2018-12-07T07:08:05.312Z,978.69
2018-12-07T07:09:04.348Z,978.65
2018-12-07T07:10:05.848Z,978.63
2018-12-07T07:11:04.179Z,978.61
2018-12-07T07:12:04.817Z,978.60
2018-12-07T07:13:04.016Z,978.59
2018-12-07T07:14:03.942Z,978.59
2018-12-07T07:15:03.852Z,978.58
2018-12-07T07:16:03.830Z,978.56
2018-12-07T07:17:03.703Z,978.56
2018-12-07T07:18:03.602Z,978.51
2018-12-07T07:19:03.524Z,978.52
2018-12-07T07:20:03.441Z,978.53
2018-12-07T07:21:03.351Z,978.53
2018-12-07T07:22:03.263Z,978.52
2018-12-07T07:23:03.184Z,978.54
2018-12-07T07:24:03.052Z,978.53
2018-12-07T07:25:03.019Z,978.57
2018-12-07T07:26:02.944Z,978.53
2018-12-07T07:27:02.853Z,978.52
2018-12-07T07:28:03.295Z,978.52
2018-12-07T07:29:02.689Z,978.49
2018-12-07T07:30:02.603Z,978.50
2018-12-07T07:31:02.528Z,978.45
2018-12-07T07:32:02.441Z,978.48
2018-12-07T07:33:02.332Z,978.52
2018-12-07T07:34:02.816Z,978.46
2018-12-07T07:35:02.824Z,978.46
2018-12-07T07:36:02.821Z,978.49
2018-12-07T07:37:02.024Z,978.49
2018-12-07T07:38:01.944Z,978.50
2018-12-07T07:39:01.857Z,978.49
2018-12-07T07:40:02.323Z,978.50
2018-12-07T07:41:01.788Z,978.47
2018-12-07T07:42:02.324Z,978.45
2018-12-07T07:43:01.529Z,978.46
2018-12-07T07:44:01.443Z,978.46
2018-12-07T07:45:02.321Z,978.41
2018-12-07T07:46:01.281Z,978.46
2018-12-07T07:47:01.199Z,978.41
2018-12-07T07:48:02.834Z,978.37
2018-12-07T07:49:01.029Z,978.39
2018-12-07T07:50:00.941Z,978.38
2018-12-07T07:51:00.867Z,978.33
2018-12-07T07:52:00.781Z,978.26
2018-12-07T07:53:00.703Z,978.29
2018-12-07T07:54:00.612Z,978.29
2018-12-07T07:55:00.529Z,978.22
2018-12-07T07:56:00.449Z,978.24
2018-12-07T07:57:00.369Z,978.21
2018-12-07T07:58:00.286Z,978.19
2018-12-07T07:59:00.200Z,978.17
2018-12-07T08:00:00.065Z,978.16
2018-12-07T08:01:00.029Z,978.14
2018-12-07T08:01:59.953Z,978.15
2018-12-07T08:03:00.122Z,978.16
2018-12-07T08:03:59.784Z,978.14
2018-12-07T08:04:59.712Z,978.15
2018-12-07T08:05:59.633Z,978.18
2018-12-07T08:06:59.535Z,978.14
2018-12-07T08:08:00.329Z,978.18
2018-12-07T08:08:59.379Z,978.16
2018-12-07T08:09:59.295Z,978.12
2018-12-07T08:10:59.206Z,978.13
2018-12-07T08:11:59.150Z,978.13
2018-12-07T08:12:59.040Z,978.15
2018-12-07T08:13:59.881Z,978.13
2018-12-07T08:14:58.882Z,978.07
2018-12-07T08:15:58.752Z,978.09
2018-12-07T08:16:58.715Z,978.08
2018-12-07T08:17:58.629Z,978.10
2018-12-07T08:18:58.551Z,978.10
2018-12-07T08:19:58.466Z,978.08
2018-12-07T08:20:58.381Z,978.05
2018-12-07T08:21:58.291Z,978.05
2018-12-07T08:22:58.829Z,978.07
2018-12-07T08:23:58.118Z,977.98
2018-12-07T08:24:57.983Z,977.98
2018-12-07T08:25:57.914Z,977.93
2018-12-07T08:26:57.816Z,977.96
2018-12-07T08:27:57.741Z,977.94
2018-12-07T08:28:57.651Z,977.91
2018-12-07T08:29:57.570Z,977.90
2018-12-07T08:30:57.486Z,977.88
2018-12-07T08:31:57.407Z,977.89
2018-12-07T08:32:57.321Z,977.87
2018-12-07T08:33:57.245Z,977.89
2018-12-07T08:34:57.156Z,977.86
2018-12-07T08:35:57.076Z,977.87
2018-12-07T08:36:56.992Z,977.83
2018-12-07T08:37:56.909Z,977.86
2018-12-07T08:38:56.828Z,977.86
2018-12-07T08:39:56.748Z,977.85
2018-12-07T08:40:56.663Z,977.82
2018-12-07T08:41:56.582Z,977.82
2018-12-07T08:42:56.496Z,977.82
2018-12-07T08:43:56.414Z,977.86
2018-12-07T08:44:56.332Z,977.83
2018-12-07T08:45:56.249Z,977.78
2018-12-07T08:46:56.167Z,977.84
2018-12-07T08:47:56.093Z,977.75
2018-12-07T08:48:56.001Z,977.75
2018-12-07T08:49:55.982Z,977.73
2018-12-07T08:50:55.836Z,977.71
2018-12-07T08:51:55.754Z,977.68
2018-12-07T08:52:55.674Z,977.66
2018-12-07T08:53:55.590Z,977.67
2018-12-07T08:54:55.506Z,977.65
2018-12-07T08:55:55.440Z,977.62
2018-12-07T08:56:55.343Z,977.63
2018-12-07T08:57:55.263Z,977.65
2018-12-07T08:58:55.179Z,977.66
2018-12-07T08:59:55.094Z,977.66
2018-12-07T09:00:55.014Z,977.67
2018-12-07T09:01:54.930Z,977.69
2018-12-07T09:02:54.849Z,977.67
2018-12-07T09:03:54.766Z,977.64
2018-12-07T09:04:54.684Z,977.60
2018-12-07T09:05:54.600Z,977.60
2018-12-07T09:06:54.520Z,977.55
2018-12-07T09:07:54.439Z,977.55
2018-12-07T09:08:54.355Z,977.55
2018-12-07T09:09:54.279Z,977.59
2018-12-07T09:10:54.188Z,977.51
2018-12-07T09:11:54.106Z,977.52
2018-12-07T09:12:54.024Z,977.46
2018-12-07T09:13:53.945Z,977.47
2018-12-07T09:14:53.858Z,977.46
2018-12-07T09:15:53.799Z,977.44
2018-12-07T09:16:53.697Z,977.39
2018-12-07T09:17:53.612Z,977.42
2018-12-07T09:18:53.532Z,977.36
2018-12-07T09:19:53.452Z,977.37
2018-12-07T09:20:54.181Z,977.37
2018-12-07T09:21:53.285Z,977.41
2018-12-07T09:22:53.202Z,977.42
2018-12-07T09:23:53.121Z,977.43
2018-12-07T09:24:53.041Z,977.42
2018-12-07T09:25:53.025Z,977.41
2018-12-07T09:26:52.942Z,977.45
2018-12-07T09:27:52.862Z,977.43
2018-12-07T09:28:52.733Z,977.40
2018-12-07T09:29:52.686Z,977.35
2018-12-07T09:30:52.613Z,977.36
2018-12-07T09:31:52.531Z,977.37
2018-12-07T09:32:52.449Z,977.34
2018-12-07T09:33:52.361Z,977.29
2018-12-07T09:34:52.284Z,977.30
2018-12-07T09:35:52.202Z,977.25
2018-12-07T09:36:52.120Z,977.28
2018-12-07T09:37:52.040Z,977.25
2018-12-07T09:38:51.955Z,977.24
2018-12-07T09:39:51.877Z,977.22
2018-12-07T09:40:52.352Z,977.20
2018-12-07T09:41:51.719Z,977.18
2018-12-07T09:42:52.350Z,977.18
2018-12-07T09:43:52.350Z,977.16
2018-12-07T09:44:51.464Z,977.11
2018-12-07T09:45:52.347Z,977.11
2018-12-07T09:46:51.848Z,977.10
2018-12-07T09:47:51.221Z,977.18
2018-12-07T09:48:51.139Z,977.15
2018-12-07T09:49:51.052Z,977.13
2018-12-07T09:50:50.985Z,977.11
2018-12-07T09:51:50.897Z,977.05
2018-12-07T09:52:50.808Z,977.04
2018-12-07T09:53:50.728Z,977.02
2018-12-07T09:54:50.650Z,976.98
2018-12-07T09:55:50.571Z,976.96
2018-12-07T09:56:50.480Z,976.97
2018-12-07T09:57:50.336Z,976.91
2018-12-07T09:58:50.327Z,976.87
2018-12-07T09:59:50.221Z,976.81
2018-12-07T10:00:50.152Z,976.81
2018-12-07T10:01:50.070Z,976.85
2018-12-07T10:02:50.856Z,976.81
2018-12-07T10:03:50.859Z,976.81
2018-12-07T10:04:49.844Z,976.77
2018-12-07T10:05:54.361Z,976.79
2018-12-07T10:06:49.665Z,976.72
2018-12-07T10:07:49.579Z,976.69
2018-12-07T10:08:49.505Z,976.68
2018-12-07T10:09:49.417Z,976.65
2018-12-07T10:10:49.340Z,976.66
2018-12-07T10:11:50.860Z,976.62
2018-12-07T10:12:49.206Z,976.60
2018-12-07T10:13:49.722Z,976.61
2018-12-07T10:14:48.955Z,976.57
2018-12-07T10:15:48.932Z,976.55
2018-12-07T10:16:48.853Z,976.52
2018-12-07T10:17:48.770Z,976.50
2018-12-07T10:18:48.694Z,976.47
2018-12-07T10:19:48.618Z,976.48
2018-12-07T10:20:49.358Z,976.47
2018-12-07T10:21:48.445Z,976.41
2018-12-07T10:22:48.369Z,976.42
2018-12-07T10:23:48.868Z,976.43
2018-12-07T10:24:48.138Z,976.35
2018-12-07T10:25:48.858Z,976.34
2018-12-07T10:26:48.033Z,976.32
2018-12-07T10:27:47.954Z,976.31
2018-12-07T10:28:47.811Z,976.29
2018-12-07T10:29:47.793Z,976.24
2018-12-07T10:30:48.354Z,976.21
2018-12-07T10:31:47.630Z,976.22
2018-12-07T10:32:48.362Z,976.15
2018-12-07T10:33:47.467Z,976.14
2018-12-07T10:34:47.320Z,976.11
2018-12-07T10:35:47.306Z,976.09
2018-12-07T10:36:47.232Z,976.04
2018-12-07T10:37:47.146Z,976.02
2018-12-07T10:38:47.062Z,976.04
2018-12-07T10:39:46.997Z,975.96
2018-12-07T10:40:46.917Z,976.01
2018-12-07T10:41:46.830Z,975.92
2018-12-07T10:42:46.741Z,975.93
2018-12-07T10:43:46.601Z,975.95
2018-12-07T10:44:46.579Z,975.88
2018-12-07T10:45:46.503Z,975.84
2018-12-07T10:46:46.408Z,975.88
2018-12-07T10:47:50.205Z,975.81
2018-12-07T10:48:46.262Z,975.79
2018-12-07T10:49:46.177Z,975.79
2018-12-07T10:50:46.112Z,975.79
2018-12-07T10:51:46.027Z,975.81
2018-12-07T10:52:45.979Z,975.81
2018-12-07T10:53:45.886Z,975.72
2018-12-07T10:54:46.375Z,975.69
2018-12-07T10:55:45.722Z,975.70
2018-12-07T10:56:45.562Z,975.65
2018-12-07T10:57:45.561Z,975.68
2018-12-07T10:58:45.467Z,975.63
2018-12-07T10:59:46.900Z,975.65
2018-12-07T11:00:45.303Z,975.67
2018-12-07T11:01:45.161Z,975.70
2018-12-07T11:02:45.196Z,975.61
2018-12-07T11:03:45.869Z,975.60
2018-12-07T11:04:44.987Z,975.60
2018-12-07T11:05:44.903Z,975.56
2018-12-07T11:06:44.825Z,975.57
2018-12-07T11:07:44.745Z,975.57
2018-12-07T11:08:44.675Z,975.51
2018-12-07T11:09:45.371Z,975.50
2018-12-07T11:10:44.525Z,975.53
2018-12-07T11:11:44.366Z,975.49
2018-12-07T11:12:44.349Z,975.47
2018-12-07T11:13:44.202Z,975.47
2018-12-07T11:14:44.146Z,975.43
2018-12-07T11:15:44.873Z,975.42
2018-12-07T11:16:46.876Z,975.48
2018-12-07T11:17:43.953Z,975.40
2018-12-07T11:18:43.893Z,975.41
2018-12-07T11:19:43.803Z,975.51
2018-12-07T11:20:43.713Z,975.51
2018-12-07T11:21:45.398Z,975.43
2018-12-07T11:22:43.558Z,975.34
2018-12-07T11:23:43.415Z,975.35
2018-12-07T11:24:43.396Z,975.31
2018-12-07T11:25:43.871Z,975.30
2018-12-07T11:26:43.169Z,975.22
2018-12-07T11:27:43.159Z,975.18
2018-12-07T11:28:43.086Z,975.21
2018-12-07T11:29:43.002Z,975.14
2018-12-07T11:30:42.920Z,975.14
2018-12-07T11:31:43.378Z,975.21
2018-12-07T11:32:42.763Z,975.02
2018-12-07T11:33:42.687Z,975.08
2018-12-07T11:34:42.537Z,975.03
2018-12-07T11:35:42.516Z,975.01
2018-12-07T11:36:44.410Z,974.96
2018-12-07T11:37:42.298Z,974.93
2018-12-07T11:38:42.884Z,974.85
2018-12-07T11:39:42.149Z,974.84
2018-12-07T11:40:42.053Z,974.85
2018-12-07T11:41:41.975Z,974.86
2018-12-07T11:42:41.963Z,974.91
2018-12-07T11:43:41.885Z,974.87
2018-12-07T11:44:41.795Z,974.81
2018-12-07T11:45:41.726Z,974.83
2018-12-07T11:46:41.639Z,974.79
2018-12-07T11:47:41.567Z,974.75
2018-12-07T11:48:41.485Z,974.76
2018-12-07T11:49:41.401Z,974.74
2018-12-07T11:50:41.328Z,974.69
2018-12-07T11:51:41.892Z,974.62
2018-12-07T11:52:41.172Z,974.66
2018-12-07T11:53:41.082Z,974.62
2018-12-07T11:54:41.005Z,974.61
2018-12-07T11:55:40.866Z,974.63
2018-12-07T11:56:40.774Z,974.57
2018-12-07T11:57:40.693Z,974.50
2018-12-07T11:58:40.614Z,974.50
2018-12-07T11:59:40.535Z,974.57
2018-12-07T12:00:40.455Z,974.49
2018-12-07T12:01:44.639Z,974.52
2018-12-07T12:02:40.295Z,974.51
2018-12-07T12:03:40.214Z,974.50
2018-12-07T12:04:40.144Z,974.51
2018-12-07T12:05:40.053Z,974.56
2018-12-07T12:06:39.976Z,974.55
2018-12-07T12:07:39.916Z,974.56
2018-12-07T12:08:39.814Z,974.54
2018-12-07T12:09:39.735Z,974.53
2018-12-07T12:10:39.655Z,974.48
2018-12-07T12:11:39.575Z,974.48
2018-12-07T12:12:39.499Z,974.51
2018-12-07T12:13:39.415Z,974.48
2018-12-07T12:14:39.347Z,974.49
2018-12-07T12:15:39.261Z,974.41
2018-12-07T12:16:39.177Z,974.38
2018-12-07T12:17:39.097Z,974.36
2018-12-07T12:18:39.021Z,974.33
2018-12-07T12:19:38.945Z,974.26
2018-12-07T12:20:38.856Z,974.24
2018-12-07T12:21:38.780Z,974.19
2018-12-07T12:22:38.698Z,974.20
2018-12-07T12:23:38.618Z,974.18
2018-12-07T12:24:38.542Z,974.17
2018-12-07T12:25:38.542Z,974.08
2018-12-07T12:26:39.391Z,974.10
2018-12-07T12:27:38.374Z,974.04
2018-12-07T12:28:38.294Z,974.06
2018-12-07T12:29:38.205Z,974.02
2018-12-07T12:30:38.898Z,974.02
2018-12-07T12:31:38.051Z,973.95
2018-12-07T12:32:37.930Z,973.97
2018-12-07T12:33:37.894Z,973.88
2018-12-07T12:34:38.393Z,973.90
2018-12-07T12:35:37.726Z,973.87
2018-12-07T12:36:39.410Z,973.79
2018-12-07T12:37:37.568Z,973.84
2018-12-07T12:38:37.490Z,973.81
2018-12-07T12:39:37.415Z,973.79
2018-12-07T12:40:37.338Z,973.77
2018-12-07T12:41:37.247Z,973.72
2018-12-07T12:42:37.172Z,973.71
2018-12-07T12:43:37.881Z,973.67
2018-12-07T12:44:37.015Z,973.65
2018-12-07T12:45:36.933Z,973.64
2018-12-07T12:46:36.855Z,973.64
2018-12-07T12:47:36.744Z,973.63
2018-12-07T12:48:36.694Z,973.61
2018-12-07T12:49:36.607Z,973.61
2018-12-07T12:50:36.536Z,973.53
2018-12-07T12:51:38.423Z,973.41